createdAt,value
2023-04-15T00:00:00.516Z,0.00
2023-04-15T00:01:00.494Z,0.00
2023-04-15T00:02:00.550Z,0.00
2023-04-15T00:03:00.667Z,0.00
2023-04-15T00:04:00.517Z,0.00
2023-04-15T00:05:00.440Z,0.00
2023-04-15T00:06:00.430Z,0.00
2023-04-15T00:07:00.409Z,0.00
2023-04-15T00:08:06.419Z,0.00
2023-04-15T00:09:00.516Z,0.00
2023-04-15T00:10:00.381Z,0.00
2023-04-15T00:11:00.362Z,0.00
2023-04-15T00:12:00.348Z,0.00
2023-04-15T00:13:00.331Z,0.00
2023-04-15T00:14:00.348Z,0.00
2023-04-15T00:15:00.305Z,0.00
2023-04-15T00:16:00.301Z,0.00
2023-04-15T00:17:00.311Z,0.00
2023-04-15T00:18:00.295Z,0.00
2023-04-15T00:19:00.602Z,0.00
2023-04-15T00:20:00.238Z,0.00
2023-04-15T00:21:00.271Z,0.00
2023-04-15T00:22:00.225Z,0.00
2023-04-15T00:23:00.203Z,0.00
2023-04-15T00:24:00.237Z,0.00
2023-04-15T00:25:00.186Z,0.00
2023-04-15T00:26:00.165Z,0.00
2023-04-15T00:27:00.173Z,0.00
2023-04-15T00:28:00.147Z,0.00
2023-04-15T00:29:00.339Z,0.00
2023-04-15T00:30:06.618Z,0.00
2023-04-15T00:31:00.189Z,0.00
2023-04-15T00:32:00.083Z,0.00
2023-04-15T00:33:00.180Z,0.00
2023-04-15T00:34:00.108Z,0.00
2023-04-15T00:35:00.054Z,0.00
2023-04-15T00:36:00.060Z,0.00
2023-04-15T00:37:00.030Z,0.00
2023-04-15T00:38:00.035Z,0.00
2023-04-15T00:39:00.284Z,0.00
2023-04-15T00:39:59.998Z,0.00
2023-04-15T00:40:59.988Z,0.00
2023-04-15T00:42:00.020Z,0.00
2023-04-15T00:43:00.003Z,0.00
2023-04-15T00:43:59.955Z,0.00
2023-04-15T00:44:59.916Z,0.00
2023-04-15T00:45:59.961Z,0.00
2023-04-15T00:46:59.942Z,0.00
2023-04-15T00:47:59.979Z,0.00
2023-04-15T00:49:00.070Z,0.00
2023-04-15T00:49:59.872Z,0.00
2023-04-15T00:50:59.837Z,0.00
2023-04-15T00:51:59.845Z,0.00
2023-04-15T00:52:59.859Z,0.00
2023-04-15T00:53:59.834Z,0.00
2023-04-15T00:54:59.792Z,0.00
2023-04-15T00:55:59.795Z,0.00
2023-04-15T00:56:59.759Z,0.00
2023-04-15T00:57:59.752Z,0.00
2023-04-15T00:58:59.995Z,0.00
2023-04-15T00:59:59.726Z,0.00
2023-04-15T01:00:59.715Z,0.00
2023-04-15T01:01:59.792Z,0.00
2023-04-15T01:02:59.910Z,0.00
2023-04-15T01:03:59.808Z,0.00
2023-04-15T01:04:59.677Z,0.00
2023-04-15T01:06:00.897Z,0.00
2023-04-15T01:06:59.654Z,0.00
2023-04-15T01:07:59.653Z,0.00
2023-04-15T01:08:59.910Z,0.00
2023-04-15T01:09:59.621Z,0.00
2023-04-15T01:10:59.609Z,0.00
2023-04-15T01:11:59.568Z,0.00
2023-04-15T01:12:59.567Z,0.00
2023-04-15T01:13:59.614Z,0.00
2023-04-15T01:14:59.577Z,0.00
2023-04-15T01:15:59.542Z,0.00
2023-04-15T01:16:59.522Z,0.00
2023-04-15T01:17:59.608Z,0.00
2023-04-15T01:18:59.675Z,0.00
2023-04-15T01:19:59.466Z,0.00
2023-04-15T01:20:59.454Z,0.00
2023-04-15T01:21:59.470Z,0.00
2023-04-15T01:22:59.459Z,0.00
2023-04-15T01:23:59.439Z,0.00
2023-04-15T01:24:59.404Z,0.00
2023-04-15T01:25:59.396Z,0.00
2023-04-15T01:26:59.381Z,0.00
2023-04-15T01:27:59.358Z,0.00
2023-04-15T01:28:59.583Z,0.00
2023-04-15T01:29:59.333Z,0.00
2023-04-15T01:30:59.337Z,0.00
2023-04-15T01:31:59.403Z,0.00
2023-04-15T01:32:59.354Z,0.00
2023-04-15T01:33:59.321Z,0.00
2023-04-15T01:34:59.328Z,0.00
2023-04-15T01:35:59.268Z,0.00
2023-04-15T01:36:59.266Z,0.00
2023-04-15T01:37:59.236Z,0.00
2023-04-15T01:38:59.490Z,0.00
2023-04-15T01:39:59.262Z,0.00
2023-04-15T01:40:59.232Z,0.00
2023-04-15T01:41:59.178Z,0.00
2023-04-15T01:42:59.184Z,0.00
2023-04-15T01:43:59.222Z,0.00
2023-04-15T01:44:59.172Z,0.00
2023-04-15T01:45:59.123Z,0.00
2023-04-15T01:46:59.173Z,0.00
2023-04-15T01:47:59.199Z,0.00
2023-04-15T01:48:59.374Z,0.00
2023-04-15T01:49:59.079Z,0.00
2023-04-15T01:50:59.137Z,0.00
2023-04-15T01:51:59.054Z,0.00
2023-04-15T01:52:59.044Z,0.00
2023-04-15T01:53:59.093Z,0.00
2023-04-15T01:54:59.013Z,0.00
2023-04-15T01:55:59.009Z,0.00
2023-04-15T01:56:59.043Z,0.00
2023-04-15T01:57:58.984Z,0.00
2023-04-15T01:58:59.145Z,0.00
2023-04-15T01:59:58.982Z,0.00
2023-04-15T02:00:58.992Z,0.00
2023-04-15T02:01:59.004Z,0.00
2023-04-15T02:02:59.045Z,0.00
2023-04-15T02:03:58.972Z,0.00
2023-04-15T02:04:58.900Z,0.00
2023-04-15T02:05:58.897Z,0.00
2023-04-15T02:06:58.863Z,0.00
2023-04-15T02:07:58.889Z,0.00
2023-04-15T02:08:59.095Z,0.00
2023-04-15T02:09:58.833Z,0.00
2023-04-15T02:10:58.805Z,0.00
2023-04-15T02:11:58.849Z,0.00
2023-04-15T02:12:58.788Z,0.00
2023-04-15T02:13:58.766Z,0.00
2023-04-15T02:14:58.797Z,0.00
2023-04-15T02:15:58.771Z,0.00
2023-04-15T02:16:58.804Z,0.00
2023-04-15T02:17:58.763Z,0.00
2023-04-15T02:18:58.853Z,0.00
2023-04-15T02:19:58.690Z,0.00
2023-04-15T02:20:59.056Z,0.00
2023-04-15T02:21:58.664Z,0.00
2023-04-15T02:22:58.661Z,0.00
2023-04-15T02:23:58.684Z,0.00
2023-04-15T02:24:58.630Z,0.00
2023-04-15T02:25:58.636Z,0.00
2023-04-15T02:26:58.639Z,0.00
2023-04-15T02:27:58.595Z,0.00
2023-04-15T02:28:58.770Z,0.00
2023-04-15T02:29:58.587Z,0.00
2023-04-15T02:30:58.595Z,0.00
2023-04-15T02:31:58.563Z,0.00
2023-04-15T02:32:58.649Z,0.00
2023-04-15T02:33:58.510Z,0.00
2023-04-15T02:34:58.498Z,0.00
2023-04-15T02:35:58.548Z,0.00
2023-04-15T02:36:58.472Z,0.00
2023-04-15T02:37:58.461Z,0.00
2023-04-15T02:38:58.531Z,0.00
2023-04-15T02:39:58.428Z,0.00
2023-04-15T02:40:58.426Z,0.00
2023-04-15T02:41:58.448Z,0.00
2023-04-15T02:42:58.401Z,0.00
2023-04-15T02:43:58.429Z,0.00
2023-04-15T02:44:58.395Z,0.00
2023-04-15T02:45:58.403Z,0.00
2023-04-15T02:46:58.361Z,0.00
2023-04-15T02:47:58.388Z,0.00
2023-04-15T02:48:58.339Z,0.00
2023-04-15T02:49:58.307Z,0.00
2023-04-15T02:50:58.340Z,0.00
2023-04-15T02:51:58.296Z,0.00
2023-04-15T02:52:58.272Z,0.00
2023-04-15T02:53:58.286Z,0.00
2023-04-15T02:54:58.240Z,0.00
2023-04-15T02:55:58.246Z,0.00
2023-04-15T02:56:58.221Z,0.00
2023-04-15T02:57:58.194Z,0.00
2023-04-15T02:58:58.196Z,0.00
2023-04-15T02:59:58.205Z,0.00
2023-04-15T03:00:58.276Z,0.00
2023-04-15T03:01:58.185Z,0.00
2023-04-15T03:02:58.289Z,0.00
2023-04-15T03:03:58.205Z,0.00
2023-04-15T03:04:58.171Z,0.00
2023-04-15T03:05:58.145Z,0.00
2023-04-15T03:06:58.121Z,0.00
2023-04-15T03:07:58.053Z,0.00
2023-04-15T03:08:58.099Z,0.00
2023-04-15T03:09:58.071Z,0.00
2023-04-15T03:10:58.086Z,0.00
2023-04-15T03:11:58.059Z,0.00
2023-04-15T03:12:58.049Z,0.00
2023-04-15T03:13:57.988Z,0.00
2023-04-15T03:14:58.037Z,0.00
2023-04-15T03:15:58.041Z,0.00
2023-04-15T03:16:57.952Z,0.00
2023-04-15T03:17:57.962Z,0.00
2023-04-15T03:18:57.974Z,0.00
2023-04-15T03:19:57.959Z,0.00
2023-04-15T03:20:57.919Z,0.00
2023-04-15T03:21:57.921Z,0.00
2023-04-15T03:22:57.899Z,0.00
2023-04-15T03:23:57.876Z,0.00
2023-04-15T03:24:57.875Z,0.00
2023-04-15T03:25:57.869Z,0.00
2023-04-15T03:26:57.819Z,0.00
2023-04-15T03:27:57.818Z,0.00
2023-04-15T03:28:57.904Z,0.00
2023-04-15T03:29:57.797Z,0.00
2023-04-15T03:30:57.829Z,0.00
2023-04-15T03:31:57.761Z,0.00
2023-04-15T03:32:57.783Z,0.00
2023-04-15T03:33:57.744Z,0.00
2023-04-15T03:34:57.744Z,0.00
2023-04-15T03:35:57.710Z,0.00
2023-04-15T03:36:57.713Z,0.00
2023-04-15T03:37:57.669Z,0.00
2023-04-15T03:38:57.665Z,0.00
2023-04-15T03:39:57.688Z,0.00
2023-04-15T03:40:57.649Z,0.00
2023-04-15T03:41:57.621Z,0.00
2023-04-15T03:42:57.654Z,0.00
2023-04-15T03:43:57.590Z,0.00
2023-04-15T03:44:57.600Z,0.00
2023-04-15T03:45:58.381Z,0.00
2023-04-15T03:46:57.573Z,0.00
2023-04-15T03:48:07.079Z,0.00
2023-04-15T03:48:57.565Z,0.00
2023-04-15T03:49:57.532Z,0.00
2023-04-15T03:50:57.540Z,0.00
2023-04-15T03:51:57.550Z,0.00
2023-04-15T03:52:57.485Z,0.00
2023-04-15T03:53:57.468Z,0.00
2023-04-15T03:54:57.537Z,0.00
2023-04-15T03:55:57.475Z,0.00
2023-04-15T03:56:57.432Z,0.00
2023-04-15T03:57:57.450Z,0.00
2023-04-15T03:58:57.409Z,0.00
2023-04-15T03:59:57.393Z,0.00
2023-04-15T04:00:57.416Z,0.00
2023-04-15T04:01:57.480Z,0.00
2023-04-15T04:02:57.536Z,0.00
2023-04-15T04:03:57.502Z,0.00
2023-04-15T04:04:57.372Z,0.00
2023-04-15T04:05:57.416Z,0.00
2023-04-15T04:06:57.309Z,0.00
2023-04-15T04:07:57.311Z,0.00
2023-04-15T04:08:57.274Z,0.00
2023-04-15T04:09:57.262Z,0.00
2023-04-15T04:10:57.261Z,1.00
2023-04-15T04:11:57.180Z,2.00
2023-04-15T04:12:57.174Z,1.00
2023-04-15T04:13:57.173Z,1.00
2023-04-15T04:14:57.155Z,2.00
2023-04-15T04:15:57.170Z,2.00
2023-04-15T04:16:57.218Z,2.00
2023-04-15T04:17:57.217Z,3.00
2023-04-15T04:18:57.089Z,3.00
2023-04-15T04:19:57.090Z,4.00
2023-04-15T04:20:57.109Z,3.00
2023-04-15T04:21:57.067Z,9.00
2023-04-15T04:22:57.054Z,5.00
2023-04-15T04:23:57.065Z,10.00
2023-04-15T04:24:57.021Z,10.00
2023-04-15T04:25:57.025Z,10.00
2023-04-15T04:26:57.024Z,15.00
2023-04-15T04:27:56.972Z,18.00
2023-04-15T04:28:56.966Z,21.00
2023-04-15T04:29:56.979Z,21.00
2023-04-15T04:30:56.961Z,23.00
2023-04-15T04:31:56.929Z,34.00
2023-04-15T04:32:56.967Z,42.00
2023-04-15T04:33:56.939Z,42.00
2023-04-15T04:34:56.926Z,50.00
2023-04-15T04:35:56.921Z,57.00
2023-04-15T04:36:56.878Z,66.00
2023-04-15T04:37:56.858Z,68.00
2023-04-15T04:38:56.826Z,76.00
2023-04-15T04:39:56.816Z,86.00
2023-04-15T04:40:56.849Z,95.00
2023-04-15T04:41:56.789Z,102.00
2023-04-15T04:42:56.777Z,112.00
2023-04-15T04:43:56.811Z,121.00
2023-04-15T04:44:56.764Z,131.00
2023-04-15T04:45:56.783Z,140.00
2023-04-15T04:46:56.777Z,149.00
2023-04-15T04:47:56.732Z,158.00
2023-04-15T04:48:56.716Z,169.00
2023-04-15T04:49:56.712Z,181.00
2023-04-15T04:50:56.688Z,191.00
2023-04-15T04:51:56.662Z,199.00
2023-04-15T04:52:56.692Z,200.00
2023-04-15T04:53:56.638Z,205.00
2023-04-15T04:54:56.628Z,210.00
2023-04-15T04:55:56.643Z,222.00
2023-04-15T04:56:56.600Z,228.00
2023-04-15T04:57:56.587Z,241.00
2023-04-15T04:58:56.648Z,252.00
2023-04-15T04:59:56.563Z,268.00
2023-04-15T05:00:56.589Z,287.00
2023-04-15T05:01:56.613Z,297.00
2023-04-15T05:02:56.643Z,308.00
2023-04-15T05:03:56.661Z,324.00
2023-04-15T05:04:56.516Z,329.00
2023-04-15T05:05:56.520Z,333.00
2023-04-15T05:06:56.474Z,365.00
2023-04-15T05:07:56.448Z,377.00
2023-04-15T05:08:56.485Z,385.00
2023-04-15T05:09:56.439Z,394.00
2023-04-15T05:10:56.443Z,414.00
2023-04-15T05:11:56.414Z,450.00
2023-04-15T05:12:56.380Z,488.00
2023-04-15T05:13:56.392Z,512.00
2023-04-15T05:14:56.404Z,532.00
2023-04-15T05:15:56.417Z,559.00
2023-04-15T05:16:56.364Z,562.00
2023-04-15T05:17:56.360Z,559.00
2023-04-15T05:18:56.310Z,563.00
2023-04-15T05:19:56.315Z,567.00
2023-04-15T05:20:56.319Z,576.00
2023-04-15T05:21:56.276Z,589.00
2023-04-15T05:22:56.257Z,602.00
2023-04-15T05:23:56.270Z,640.00
2023-04-15T05:24:56.241Z,649.00
2023-04-15T05:25:56.238Z,655.00
2023-04-15T05:26:56.265Z,678.00
2023-04-15T05:27:56.195Z,688.00
2023-04-15T05:28:56.178Z,712.00
2023-04-15T05:29:56.185Z,749.00
2023-04-15T05:30:56.194Z,754.00
2023-04-15T05:31:56.177Z,760.00
2023-04-15T05:32:56.202Z,786.00
2023-04-15T05:33:56.128Z,831.00
2023-04-15T05:34:56.110Z,867.00
2023-04-15T05:35:56.129Z,889.00
2023-04-15T05:36:56.113Z,892.00
2023-04-15T05:37:56.091Z,936.00
2023-04-15T05:38:56.068Z,926.00
2023-04-15T05:39:56.060Z,946.00
2023-04-15T05:40:56.054Z,978.00
2023-04-15T05:41:56.072Z,1002.00
2023-04-15T05:42:55.994Z,950.00
2023-04-15T05:43:56.000Z,975.00
2023-04-15T05:44:55.989Z,1061.00
2023-04-15T05:45:56.006Z,1084.00
2023-04-15T05:46:55.962Z,1040.00
2023-04-15T05:47:56.015Z,1096.00
2023-04-15T05:48:56.606Z,1203.00
2023-04-15T05:49:55.918Z,1230.00
2023-04-15T05:50:55.928Z,1193.00
2023-04-15T05:51:55.908Z,1285.00
2023-04-15T05:52:55.889Z,1320.00
2023-04-15T05:53:55.918Z,1366.00
2023-04-15T05:54:55.835Z,1439.00
2023-04-15T05:55:55.832Z,1413.00
2023-04-15T05:56:55.851Z,1498.00
2023-04-15T05:57:55.823Z,1599.00
2023-04-15T05:58:55.798Z,1653.00
2023-04-15T05:59:55.827Z,1682.00
2023-04-15T06:00:55.804Z,1748.00
2023-04-15T06:01:55.813Z,1795.00
2023-04-15T06:02:55.836Z,1840.00
2023-04-15T06:03:55.970Z,1924.00
2023-04-15T06:04:55.752Z,1988.00
2023-04-15T06:05:55.773Z,2080.00
2023-04-15T06:06:55.710Z,2142.00
2023-04-15T06:07:55.712Z,2219.00
2023-04-15T06:08:55.653Z,2282.00
2023-04-15T06:09:55.670Z,2316.00
2023-04-15T06:10:55.657Z,2396.00
2023-04-15T06:11:55.622Z,2446.00
2023-04-15T06:12:55.624Z,2499.00
2023-04-15T06:13:55.619Z,2548.00
2023-04-15T06:14:55.593Z,2570.00
2023-04-15T06:15:55.672Z,2632.00
2023-04-15T06:16:55.575Z,2673.00
2023-04-15T06:17:55.657Z,2670.00
2023-04-15T06:18:55.553Z,2782.00
2023-04-15T06:19:55.525Z,2781.00
2023-04-15T06:20:55.539Z,2805.00
2023-04-15T06:21:55.508Z,2829.00
2023-04-15T06:22:55.495Z,2940.00
2023-04-15T06:23:55.484Z,2990.00
2023-04-15T06:24:55.470Z,3090.00
2023-04-15T06:25:55.451Z,3121.00
2023-04-15T06:26:55.426Z,3171.00
2023-04-15T06:27:55.433Z,3166.00
2023-04-15T06:28:55.407Z,3183.00
2023-04-15T06:29:55.399Z,3263.00
2023-04-15T06:30:55.394Z,3342.00
2023-04-15T06:31:55.442Z,3385.00
2023-04-15T06:32:55.361Z,3359.00
2023-04-15T06:33:55.348Z,3460.00
2023-04-15T06:34:55.329Z,3542.00
2023-04-15T06:35:55.351Z,3509.00
2023-04-15T06:36:55.306Z,3593.00
2023-04-15T06:37:55.282Z,3582.00
2023-04-15T06:38:55.285Z,3610.00
2023-04-15T06:39:55.277Z,3609.00
2023-04-15T06:40:55.252Z,3524.00
2023-04-15T06:41:55.288Z,3580.00
2023-04-15T06:42:55.217Z,3693.00
2023-04-15T06:43:55.210Z,3649.00
2023-04-15T06:44:55.197Z,3636.00
2023-04-15T06:45:55.222Z,3652.00
2023-04-15T06:46:55.169Z,3520.00
2023-04-15T06:47:55.232Z,3624.00
2023-04-15T06:48:55.166Z,3425.00
2023-04-15T06:49:55.144Z,3447.00
2023-04-15T06:50:55.141Z,3417.00
2023-04-15T06:51:55.124Z,3452.00
2023-04-15T06:52:55.085Z,3508.00
2023-04-15T06:53:55.100Z,3447.00
2023-04-15T06:54:55.078Z,3260.00
2023-04-15T06:55:55.066Z,3341.00
2023-04-15T06:56:55.040Z,3554.00
2023-04-15T06:57:55.039Z,3544.00
2023-04-15T06:58:55.008Z,3363.00
2023-04-15T06:59:54.999Z,3467.00
2023-04-15T07:00:54.993Z,3510.00
2023-04-15T07:01:55.035Z,3631.00
2023-04-15T07:02:54.991Z,3496.00
2023-04-15T07:03:54.960Z,3446.00
2023-04-15T07:04:54.962Z,3473.00
2023-04-15T07:05:54.943Z,3443.00
2023-04-15T07:06:54.904Z,3454.00
2023-04-15T07:07:54.903Z,3532.00
2023-04-15T07:08:54.885Z,3514.00
2023-04-15T07:09:54.882Z,3480.00
2023-04-15T07:10:54.879Z,3565.00
2023-04-15T07:11:54.916Z,3397.00
2023-04-15T07:12:56.599Z,3409.00
2023-04-15T07:13:56.896Z,3273.00
2023-04-15T07:14:54.797Z,3320.00
2023-04-15T07:15:54.946Z,3350.00
2023-04-15T07:16:54.879Z,3461.00
2023-04-15T07:17:54.847Z,3388.00
2023-04-15T07:18:54.766Z,3585.00
2023-04-15T07:19:54.732Z,3438.00
2023-04-15T07:20:54.724Z,3781.00
2023-04-15T07:21:55.095Z,3521.00
2023-04-15T07:22:54.971Z,3629.00
2023-04-15T07:23:54.791Z,3571.00
2023-04-15T07:24:54.681Z,3677.00
2023-04-15T07:25:54.687Z,3745.00
2023-04-15T07:26:54.659Z,3850.00
2023-04-15T07:27:54.640Z,3879.00
2023-04-15T07:28:54.615Z,3942.00
2023-04-15T07:30:56.852Z,4320.00
2023-04-15T07:31:57.826Z,4234.00
2023-04-15T07:32:57.883Z,4297.00
2023-04-15T07:33:57.779Z,4433.00
2023-04-15T07:34:57.762Z,4478.00
2023-04-15T07:35:57.748Z,4475.00
2023-04-15T07:36:57.773Z,4548.00
2023-04-15T07:37:57.736Z,4617.00
2023-04-15T07:38:57.724Z,4720.00
2023-04-15T07:39:57.707Z,4700.00
2023-04-15T07:40:57.687Z,4788.00
2023-04-15T07:41:57.693Z,4818.00
2023-04-15T07:42:57.656Z,4940.00
2023-04-15T07:43:57.651Z,4787.00
2023-04-15T07:44:57.638Z,4913.00
2023-04-15T07:45:57.709Z,4866.00
2023-04-15T07:46:57.626Z,5339.00
2023-04-15T07:47:57.660Z,4212.00
2023-04-15T07:48:57.576Z,5466.00
2023-04-15T07:49:57.573Z,4836.00
2023-04-15T07:50:57.571Z,4539.00
2023-04-15T07:51:57.551Z,5064.00
2023-04-15T07:52:57.540Z,4989.00
2023-04-15T07:53:57.522Z,5751.00
2023-04-15T07:54:57.500Z,5170.00
2023-04-15T07:55:57.519Z,4897.00
2023-04-15T07:56:57.486Z,4138.00
2023-04-15T07:57:57.474Z,4229.00
2023-04-15T07:58:57.467Z,4816.00
2023-04-15T07:59:57.440Z,5082.00
2023-04-15T08:00:57.435Z,5100.00
2023-04-15T08:01:57.469Z,4983.00
2023-04-15T08:02:57.597Z,5314.00
2023-04-15T08:03:57.477Z,5418.00
2023-04-15T08:04:57.415Z,4657.00
2023-04-15T08:05:57.419Z,3813.00
2023-04-15T08:06:57.349Z,5059.00
2023-04-15T08:07:57.340Z,5182.00
2023-04-15T08:08:57.366Z,4910.00
2023-04-15T08:09:57.309Z,4796.00
2023-04-15T08:10:57.322Z,5063.00
2023-04-15T08:11:57.277Z,5077.00
2023-04-15T08:12:57.267Z,5080.00
2023-04-15T08:13:57.246Z,5111.00
2023-04-15T08:14:57.248Z,5082.00
2023-04-15T08:15:57.275Z,5093.00
2023-04-15T08:16:57.233Z,5109.00
2023-04-15T08:17:57.223Z,5122.00
2023-04-15T08:18:57.269Z,5134.00
2023-04-15T08:19:57.255Z,5463.00
2023-04-15T08:20:57.191Z,5123.00
2023-04-15T08:21:57.189Z,5012.00
2023-04-15T08:22:57.127Z,5210.00
2023-04-15T08:23:57.114Z,5434.00
2023-04-15T08:24:57.105Z,6073.00
2023-04-15T08:25:57.084Z,4457.00
2023-04-15T08:26:57.123Z,5241.00
2023-04-15T08:27:57.078Z,5055.00
2023-04-15T08:28:57.066Z,5628.00
2023-04-15T08:29:57.039Z,4906.00
2023-04-15T08:30:57.018Z,6045.00
2023-04-15T08:31:57.068Z,3905.00
2023-04-15T08:32:57.054Z,5046.00
2023-04-15T08:33:56.986Z,5620.00
2023-04-15T08:34:56.969Z,4901.00
2023-04-15T08:35:56.953Z,4832.00
2023-04-15T08:36:56.977Z,5182.00
2023-04-15T08:37:56.941Z,5134.00
2023-04-15T08:38:56.926Z,5119.00
2023-04-15T08:39:56.902Z,5159.00
2023-04-15T08:40:57.058Z,5119.00
2023-04-15T08:41:56.920Z,5120.00
2023-04-15T08:42:56.858Z,5181.00
2023-04-15T08:43:56.846Z,5126.00
2023-04-15T08:44:56.834Z,5162.00
2023-04-15T08:45:56.829Z,5169.00
2023-04-15T08:46:56.854Z,5179.00
2023-04-15T08:47:56.848Z,5247.00
2023-04-15T08:48:56.791Z,5263.00
2023-04-15T08:49:56.819Z,5345.00
2023-04-15T08:50:56.761Z,5356.00
2023-04-15T08:51:56.778Z,5310.00
2023-04-15T08:52:56.739Z,5753.00
2023-04-15T08:53:56.717Z,4657.00
2023-04-15T08:54:56.712Z,4957.00
2023-04-15T08:55:56.687Z,5086.00
2023-04-15T08:56:56.730Z,5027.00
2023-04-15T08:57:56.661Z,5098.00
2023-04-15T08:58:56.661Z,5343.00
2023-04-15T08:59:56.630Z,5662.00
2023-04-15T09:00:56.641Z,5375.00
2023-04-15T09:01:56.665Z,5159.00
2023-04-15T09:02:56.648Z,5490.00
2023-04-15T09:03:56.647Z,5634.00
2023-04-15T09:04:56.586Z,5497.00
2023-04-15T09:05:56.569Z,5419.00
2023-04-15T09:06:56.568Z,5595.00
2023-04-15T09:07:56.570Z,5492.00
2023-04-15T09:08:56.516Z,5485.00
2023-04-15T09:09:56.507Z,5650.00
2023-04-15T09:10:56.498Z,5810.00
2023-04-15T09:11:56.495Z,5574.00
2023-04-15T09:12:56.477Z,5422.00
2023-04-15T09:13:56.447Z,5579.00
2023-04-15T09:14:56.436Z,5357.00
2023-04-15T09:15:56.425Z,5574.00
2023-04-15T09:16:56.493Z,5400.00
2023-04-15T09:17:56.478Z,5621.00
2023-04-15T09:18:56.400Z,5966.00
2023-04-15T09:19:56.367Z,5758.00
2023-04-15T09:20:56.372Z,5741.00
2023-04-15T09:21:58.645Z,5654.00
2023-04-15T09:22:56.335Z,5724.00
2023-04-15T09:23:56.318Z,5851.00
2023-04-15T09:24:56.313Z,5785.00
2023-04-15T09:25:56.295Z,6027.00
2023-04-15T09:26:56.297Z,5493.00
2023-04-15T09:27:56.284Z,5335.00
2023-04-15T09:28:56.263Z,6256.00
2023-04-15T09:29:56.229Z,5381.00
2023-04-15T09:30:56.217Z,5386.00
2023-04-15T09:31:56.220Z,5617.00
2023-04-15T09:32:56.221Z,6015.00
2023-04-15T09:33:56.188Z,5713.00
2023-04-15T09:34:56.192Z,5856.00
2023-04-15T09:35:56.149Z,5994.00
2023-04-15T09:36:56.172Z,5726.00
2023-04-15T09:37:56.163Z,5892.00
2023-04-15T09:38:56.133Z,5720.00
2023-04-15T09:39:56.094Z,5228.00
2023-04-15T09:40:56.097Z,5350.00
2023-04-15T09:41:56.065Z,5476.00
2023-04-15T09:42:56.076Z,5736.00
2023-04-15T09:43:56.039Z,5791.00
2023-04-15T09:44:56.034Z,5640.00
2023-04-15T09:45:56.025Z,5671.00
2023-04-15T09:46:56.031Z,5086.00
2023-04-15T09:47:57.054Z,5561.00
2023-04-15T09:48:55.996Z,5624.00
2023-04-15T09:49:56.051Z,5745.00
2023-04-15T09:50:55.959Z,4329.00
2023-04-15T09:52:04.913Z,4637.00
2023-04-15T09:52:55.948Z,5145.00
2023-04-15T09:53:55.907Z,4202.00
2023-04-15T09:54:55.905Z,1581.00
2023-04-15T09:55:55.900Z,5622.00
2023-04-15T09:56:55.872Z,5713.00
2023-04-15T09:57:55.878Z,5447.00
2023-04-15T09:58:55.923Z,5852.00
2023-04-15T09:59:56.073Z,5989.00
2023-04-15T10:00:57.145Z,6207.00
2023-04-15T10:01:57.025Z,6215.00
2023-04-15T10:02:56.957Z,6236.00
2023-04-15T10:04:01.157Z,7628.00
2023-04-15T10:04:56.791Z,2613.00
2023-04-15T10:05:55.838Z,6936.00
2023-04-15T10:06:55.816Z,6940.00
2023-04-15T10:07:55.825Z,7003.00
2023-04-15T10:08:55.727Z,6998.00
2023-04-15T10:09:55.713Z,7030.00
2023-04-15T10:10:55.700Z,6739.00
2023-04-15T10:11:55.687Z,7915.00
2023-04-15T10:12:55.674Z,7149.00
2023-04-15T10:13:55.648Z,5916.00
2023-04-15T10:14:55.636Z,4730.00
2023-04-15T10:15:55.658Z,2755.00
2023-04-15T10:16:55.654Z,6694.00
2023-04-15T10:17:55.622Z,5960.00
2023-04-15T10:18:55.585Z,5563.00
2023-04-15T10:19:55.593Z,7661.00
2023-04-15T10:20:55.565Z,6744.00
2023-04-15T10:21:55.545Z,7054.00
2023-04-15T10:22:55.592Z,7447.00
2023-04-15T10:23:55.516Z,7397.00
2023-04-15T10:24:55.510Z,7651.00
2023-04-15T10:25:55.485Z,7512.00
2023-04-15T10:26:55.488Z,7693.00
2023-04-15T10:27:55.497Z,6900.00
2023-04-15T10:28:55.471Z,6213.00
2023-04-15T10:29:55.433Z,7089.00
2023-04-15T10:30:55.447Z,7570.00
2023-04-15T10:31:55.405Z,7674.00
2023-04-15T10:32:55.551Z,7588.00
2023-04-15T10:33:55.378Z,7624.00
2023-04-15T10:34:55.413Z,7279.00
2023-04-15T10:35:55.358Z,7356.00
2023-04-15T10:36:55.350Z,7767.00
2023-04-15T10:37:55.344Z,7791.00
2023-04-15T10:38:55.324Z,7829.00
2023-04-15T10:39:55.305Z,7950.00
2023-04-15T10:40:55.289Z,8261.00
2023-04-15T10:41:55.273Z,8278.00
2023-04-15T10:42:55.280Z,8263.00
2023-04-15T10:43:55.271Z,8855.00
2023-04-15T10:44:55.245Z,8682.00
2023-04-15T10:45:55.234Z,9394.00
2023-04-15T10:46:55.318Z,9311.00
2023-04-15T10:47:55.266Z,8658.00
2023-04-15T10:48:55.197Z,9450.00
2023-04-15T10:49:55.170Z,9947.00
2023-04-15T10:50:55.161Z,9956.00
2023-04-15T10:51:55.146Z,9692.00
2023-04-15T10:52:55.134Z,10665.00
2023-04-15T10:53:55.135Z,11298.00
2023-04-15T10:54:55.114Z,5459.00
2023-04-15T10:55:55.085Z,9102.00
2023-04-15T10:56:55.082Z,11187.00
2023-04-15T10:57:55.068Z,5736.00
2023-04-15T10:58:55.106Z,8781.00
2023-04-15T10:59:55.041Z,6609.00
2023-04-15T11:00:55.026Z,6622.00
2023-04-15T11:01:55.141Z,5672.00
2023-04-15T11:02:55.126Z,5527.00
2023-04-15T11:03:55.102Z,5319.00
2023-04-15T11:04:55.208Z,5213.00
2023-04-15T11:05:54.961Z,5176.00
2023-04-15T11:06:54.957Z,5156.00
2023-04-15T11:07:54.959Z,5197.00
2023-04-15T11:08:54.952Z,4965.00
2023-04-15T11:09:54.911Z,4853.00
2023-04-15T11:10:54.904Z,4809.00
2023-04-15T11:11:54.876Z,4801.00
2023-04-15T11:12:54.887Z,5060.00
2023-04-15T11:13:54.888Z,5261.00
2023-04-15T11:14:54.860Z,5523.00
2023-04-15T11:15:54.923Z,5801.00
2023-04-15T11:16:54.848Z,6077.00
2023-04-15T11:17:54.898Z,6302.00
2023-04-15T11:18:54.829Z,6559.00
2023-04-15T11:19:54.789Z,6750.00
2023-04-15T11:20:54.773Z,6926.00
2023-04-15T11:21:54.748Z,7019.00
2023-04-15T11:23:14.130Z,7135.00
2023-04-15T11:23:54.794Z,7267.00
2023-04-15T11:24:54.715Z,7419.00
2023-04-15T11:25:54.704Z,7461.00
2023-04-15T11:26:54.698Z,7513.00
2023-04-15T11:27:54.688Z,7519.00
2023-04-15T11:28:54.661Z,7537.00
2023-04-15T11:29:54.656Z,7584.00
2023-04-15T11:30:54.638Z,7708.00
2023-04-15T11:31:54.658Z,7853.00
2023-04-15T11:32:54.711Z,7863.00
2023-04-15T11:33:54.594Z,7781.00
2023-04-15T11:34:54.574Z,7765.00
2023-04-15T11:35:54.588Z,7698.00
2023-04-15T11:36:54.556Z,7697.00
2023-04-15T11:37:54.536Z,7673.00
2023-04-15T11:38:54.587Z,7714.00
2023-04-15T11:39:54.514Z,7723.00
2023-04-15T11:40:54.529Z,7426.00
2023-04-15T11:41:54.489Z,7185.00
2023-04-15T11:42:54.502Z,8139.00
2023-04-15T11:43:54.476Z,8557.00
2023-04-15T11:44:54.449Z,8774.00
2023-04-15T11:45:54.499Z,9165.00
2023-04-15T11:46:54.448Z,7959.00
2023-04-15T11:47:54.488Z,9741.00
2023-04-15T11:48:54.411Z,8506.00
2023-04-15T11:49:54.384Z,7560.00
2023-04-15T11:50:54.388Z,7301.00
2023-04-15T11:51:54.344Z,5447.00
2023-04-15T11:52:54.340Z,9077.00
2023-04-15T11:53:54.402Z,9548.00
2023-04-15T11:54:54.311Z,9703.00
2023-04-15T11:55:54.321Z,9930.00
2023-04-15T11:56:54.299Z,10075.00
2023-04-15T11:57:54.272Z,10813.00
2023-04-15T11:58:54.284Z,9240.00
2023-04-15T11:59:54.261Z,10884.00
2023-04-15T12:00:54.284Z,10806.00
2023-04-15T12:01:54.276Z,10027.00
2023-04-15T12:02:54.354Z,10264.00
2023-04-15T12:03:54.379Z,10834.00
2023-04-15T12:04:54.277Z,10337.00
2023-04-15T12:05:54.166Z,11022.00
2023-04-15T12:06:54.162Z,9828.00
2023-04-15T12:07:54.191Z,11237.00
2023-04-15T12:08:54.168Z,11591.00
2023-04-15T12:09:54.144Z,10607.00
2023-04-15T12:10:54.108Z,10650.00
2023-04-15T12:11:54.115Z,10743.00
2023-04-15T12:12:54.076Z,10757.00
2023-04-15T12:13:54.096Z,10673.00
2023-04-15T12:14:54.046Z,10522.00
2023-04-15T12:15:54.101Z,10808.00
2023-04-15T12:16:54.078Z,10495.00
2023-04-15T12:17:54.040Z,10086.00
2023-04-15T12:18:54.042Z,10261.00
2023-04-15T12:19:53.980Z,10263.00
2023-04-15T12:20:53.966Z,9896.00
2023-04-15T12:21:53.974Z,10783.00
2023-04-15T12:22:53.956Z,10477.00
2023-04-15T12:23:53.939Z,10264.00
2023-04-15T12:24:53.931Z,10068.00
2023-04-15T12:25:53.893Z,10390.00
2023-04-15T12:26:53.877Z,9797.00
2023-04-15T12:27:53.991Z,9765.00
2023-04-15T12:28:53.871Z,10200.00
2023-04-15T12:29:53.881Z,10094.00
2023-04-15T12:30:53.890Z,10684.00
2023-04-15T12:31:53.820Z,9773.00